KDPA/DPA METAR and TAF weather

Enter ICAO airport designator
Station Type Date Time Source
KDPA METAR 2021/02/27 02:52 UTC NOAA

KDPA 270252Z 12005KT 9SM OVC055 03/M03 A2987 RMK AO2 RAB37E38SNB38E49 SLP121 P0000 60000 T00281028 56016


Station Type Date Time Source
KDPA Decoded METAR 2021/02/27 02:52 UTC NOAA

CHICAGO/WEST CH DUPAGE, IL, United States (KDPA) 41-54N 88-15W 230M
Feb 26, 2021 - 09:52 PM EST / 2021.02.27 0252 UTC
Wind: from the ESE (120 degrees) at 6 MPH (5 KT):0
Visibility: 9 mile(s):0
Sky conditions: overcast
Precipitation last hour: A trace
Temperature: 37.0 F (2.8 C)
Dew Point: 27.0 F (-2.8 C)
Relative Humidity: 66%
Pressure (altimeter): 29.87 in. Hg (1011 hPa)
Pressure tendency: 0.05 inches (1.6 hPa) lower than three hours ago
ob: KDPA 270252Z 12005KT 9SM OVC055 03/M03 A2987 RMK AO2 RAB37E38SNB38E49 SLP121 P0000 60000 T00281028 56016
cycle: 3

Station Type Date Time Source
KDPA TAF 2021/02/27 03:58 UTC NOAA

TAF
AMD KDPA 270258Z 2703/2724 14009KT 6SM -SHRAPL FEW035 OVC060
FM270500 19007KT 5SM -SHRA BKN025 OVC035
TEMPO 2705/2709 3SM -RA BR SCT015 BKN020
FM271000 24008KT P6SM SCT020 SCT250
FM271600 22011KT P6SM FEW025

Example: see airport list